createdAt,value
2019-03-27T00:00:55.878Z,8.30
2019-03-27T00:03:27.164Z,8.30
2019-03-27T00:05:58.589Z,8.30
2019-03-27T00:08:29.799Z,8.30
2019-03-27T00:11:01.039Z,8.30
2019-03-27T00:13:32.346Z,8.30
2019-03-27T00:16:03.587Z,8.20
2019-03-27T00:18:34.821Z,8.30
2019-03-27T00:21:06.073Z,8.40
2019-03-27T00:23:37.282Z,8.30
2019-03-27T00:26:08.701Z,8.30
2019-03-27T00:28:39.952Z,8.10
2019-03-27T00:31:12.025Z,8.20
2019-03-27T00:33:43.394Z,8.20
2019-03-27T00:36:14.621Z,8.00
2019-03-27T00:38:45.889Z,8.00
2019-03-27T00:41:17.106Z,8.00
2019-03-27T00:43:48.344Z,7.90
2019-03-27T00:46:19.782Z,7.80
2019-03-27T00:48:51.024Z,7.70
2019-03-27T00:51:22.305Z,7.60
2019-03-27T00:53:53.513Z,7.50
2019-03-27T00:56:24.765Z,7.40
2019-03-27T00:58:55.977Z,7.20
2019-03-27T01:01:27.247Z,7.10
2019-03-27T01:03:58.496Z,7.10
2019-03-27T01:06:29.742Z,7.00
2019-03-27T01:09:00.995Z,7.00
2019-03-27T01:11:32.276Z,6.90
2019-03-27T01:14:03.458Z,6.70
2019-03-27T01:16:34.779Z,6.70
2019-03-27T01:19:06.016Z,6.60
2019-03-27T01:21:37.250Z,6.50
2019-03-27T01:24:08.611Z,6.40
2019-03-27T01:26:39.830Z,6.30
2019-03-27T01:29:11.048Z,6.20
2019-03-27T01:31:42.312Z,6.10
2019-03-27T01:34:13.557Z,6.10
2019-03-27T01:36:44.820Z,6.00
2019-03-27T01:39:16.678Z,6.00
2019-03-27T01:41:47.913Z,6.00
2019-03-27T01:44:19.107Z,6.00
2019-03-27T01:46:50.357Z,6.00
2019-03-27T01:49:21.570Z,6.00
2019-03-27T01:51:52.850Z,6.10
2019-03-27T01:54:24.069Z,6.00
2019-03-27T01:56:55.331Z,6.00
2019-03-27T01:59:26.527Z,5.80
2019-03-27T02:01:57.743Z,5.80
2019-03-27T02:04:30.264Z,5.80
2019-03-27T02:07:01.520Z,5.80
2019-03-27T02:09:32.748Z,5.60
2019-03-27T02:12:04.189Z,5.50
2019-03-27T02:14:35.451Z,5.40
2019-03-27T02:17:06.780Z,5.40
2019-03-27T02:19:38.021Z,5.40
2019-03-27T02:22:12.555Z,5.40
2019-03-27T02:24:43.795Z,5.30
2019-03-27T02:27:15.027Z,5.30
2019-03-27T02:29:46.386Z,5.20
2019-03-27T02:32:20.681Z,5.10
2019-03-27T02:34:50.645Z,5.20
2019-03-27T02:37:21.858Z,5.20
2019-03-27T02:39:53.079Z,5.10
2019-03-27T02:42:24.315Z,5.10
2019-03-27T02:44:55.651Z,4.90
2019-03-27T02:47:26.860Z,4.90
2019-03-27T02:49:58.097Z,5.00
2019-03-27T02:52:29.447Z,5.00
2019-03-27T02:55:00.702Z,5.00
2019-03-27T02:57:31.906Z,5.00
2019-03-27T03:00:03.209Z,5.00
2019-03-27T03:02:34.452Z,5.00
2019-03-27T03:05:06.623Z,5.10
2019-03-27T03:07:38.225Z,5.00
2019-03-27T03:10:10.759Z,4.90
2019-03-27T03:12:41.981Z,5.00
2019-03-27T03:15:15.465Z,4.90
2019-03-27T03:17:46.712Z,4.90
2019-03-27T03:20:17.968Z,5.00
2019-03-27T03:22:49.227Z,5.00
2019-03-27T03:25:20.471Z,4.90
2019-03-27T03:27:51.689Z,4.90
2019-03-27T03:30:22.907Z,4.90
2019-03-27T03:32:54.156Z,4.90
2019-03-27T03:35:25.418Z,4.90
2019-03-27T03:37:56.650Z,4.90
2019-03-27T03:40:27.870Z,4.80
2019-03-27T03:42:59.135Z,4.70
2019-03-27T03:45:30.346Z,4.70
2019-03-27T03:48:01.586Z,4.70
2019-03-27T03:50:44.383Z,4.60
2019-03-27T03:53:16.905Z,4.60
2019-03-27T03:55:48.111Z,4.60
2019-03-27T03:58:19.568Z,4.50
2019-03-27T04:00:51.073Z,4.50
2019-03-27T04:03:24.450Z,4.50
2019-03-27T04:05:55.702Z,4.50
2019-03-27T04:08:26.969Z,4.30
2019-03-27T04:10:58.208Z,4.30
2019-03-27T04:13:29.519Z,4.30
2019-03-27T04:16:00.779Z,4.20
2019-03-27T04:18:32.061Z,4.20
2019-03-27T04:21:04.001Z,4.10
2019-03-27T04:23:35.264Z,4.10
2019-03-27T04:26:10.070Z,4.20
2019-03-27T04:28:39.567Z,4.20
2019-03-27T04:31:10.740Z,4.20
2019-03-27T04:33:41.957Z,4.10
2019-03-27T04:36:13.162Z,4.10
2019-03-27T04:38:44.451Z,4.10
2019-03-27T04:41:15.668Z,4.20
2019-03-27T04:43:46.921Z,4.20
2019-03-27T04:46:18.156Z,4.20
2019-03-27T04:48:49.422Z,4.30
2019-03-27T04:51:20.643Z,4.30
2019-03-27T04:53:51.899Z,4.30
2019-03-27T04:56:23.134Z,4.30
2019-03-27T04:58:54.367Z,4.20
2019-03-27T05:01:25.668Z,4.10
2019-03-27T05:03:57.207Z,4.10
2019-03-27T05:06:28.433Z,4.10
2019-03-27T05:08:59.666Z,4.20
2019-03-27T05:11:30.927Z,4.20
2019-03-27T05:14:02.176Z,4.20
2019-03-27T05:16:33.527Z,4.10
2019-03-27T05:19:04.818Z,4.20
2019-03-27T05:21:36.043Z,4.20
2019-03-27T05:24:07.319Z,4.30
2019-03-27T05:26:38.533Z,4.30
2019-03-27T05:29:09.843Z,4.30
2019-03-27T05:31:41.067Z,4.40
2019-03-27T05:34:12.297Z,4.40
2019-03-27T05:36:43.550Z,4.40
2019-03-27T05:39:14.885Z,4.50
2019-03-27T05:41:46.183Z,4.50
2019-03-27T05:44:17.394Z,4.60
2019-03-27T05:46:48.647Z,4.70
2019-03-27T05:49:19.817Z,4.80
2019-03-27T05:51:51.122Z,4.80
2019-03-27T05:54:22.424Z,4.80
2019-03-27T05:56:53.750Z,4.90
2019-03-27T05:59:25.014Z,4.90
2019-03-27T06:01:56.486Z,5.00
2019-03-27T06:04:27.699Z,5.10
2019-03-27T06:06:58.935Z,5.30
2019-03-27T06:09:30.192Z,5.30
2019-03-27T06:12:01.519Z,5.40
2019-03-27T06:14:33.019Z,5.50
2019-03-27T06:17:04.200Z,5.60
2019-03-27T06:19:35.543Z,5.70
2019-03-27T06:22:06.779Z,5.80
2019-03-27T06:24:38.025Z,5.90
2019-03-27T06:27:09.394Z,5.90
2019-03-27T06:29:40.586Z,6.00
2019-03-27T06:32:12.341Z,6.10
2019-03-27T06:34:43.618Z,6.20
2019-03-27T06:37:14.852Z,6.30
2019-03-27T06:39:46.199Z,6.70
2019-03-27T06:42:17.468Z,8.10
2019-03-27T06:44:48.705Z,10.20
2019-03-27T06:47:19.962Z,12.30
2019-03-27T06:49:51.662Z,13.60
2019-03-27T06:52:23.020Z,14.80
2019-03-27T06:54:54.296Z,16.30
2019-03-27T06:57:25.611Z,17.30
2019-03-27T06:59:56.877Z,18.30
2019-03-27T07:02:28.989Z,18.70
2019-03-27T07:05:00.819Z,19.50
2019-03-27T07:07:32.285Z,20.60
2019-03-27T07:10:03.841Z,21.90
2019-03-27T07:12:35.102Z,22.90
2019-03-27T07:15:07.488Z,23.70
2019-03-27T07:17:38.804Z,24.20
2019-03-27T07:20:10.310Z,24.80
2019-03-27T07:22:41.591Z,25.20
2019-03-27T07:25:13.141Z,25.80
2019-03-27T07:27:44.412Z,25.90
2019-03-27T07:30:15.772Z,26.40
2019-03-27T07:32:47.050Z,26.70
2019-03-27T07:35:18.332Z,27.80
2019-03-27T07:37:49.595Z,28.20
2019-03-27T07:40:20.876Z,28.30
2019-03-27T07:42:52.223Z,28.70
2019-03-27T07:45:23.596Z,29.10
2019-03-27T07:47:54.914Z,29.50
2019-03-27T07:50:26.165Z,29.00
2019-03-27T07:52:57.448Z,29.90
2019-03-27T07:55:28.719Z,31.00
2019-03-27T07:57:59.960Z,31.50
2019-03-27T08:00:31.149Z,31.50
2019-03-27T08:03:02.375Z,31.40
2019-03-27T08:05:33.654Z,31.30
2019-03-27T08:08:04.998Z,31.20
2019-03-27T08:10:36.234Z,30.70
2019-03-27T08:13:07.552Z,30.60
2019-03-27T08:15:40.807Z,29.70
2019-03-27T08:18:11.781Z,28.60
2019-03-27T08:20:43.153Z,26.90
2019-03-27T08:23:14.410Z,25.00
2019-03-27T08:25:45.782Z,23.30
2019-03-27T08:28:17.150Z,21.80
2019-03-27T08:30:48.401Z,20.10
2019-03-27T08:33:19.667Z,19.00
2019-03-27T08:35:50.924Z,17.90
2019-03-27T08:38:22.192Z,17.00
2019-03-27T08:40:53.550Z,16.30
2019-03-27T08:43:25.713Z,15.20
2019-03-27T08:45:57.266Z,14.50
2019-03-27T08:48:28.630Z,13.80
2019-03-27T08:50:59.892Z,13.40
2019-03-27T08:53:31.143Z,13.20
2019-03-27T08:56:02.450Z,13.70
2019-03-27T08:58:33.710Z,16.10
2019-03-27T09:01:05.288Z,19.80
2019-03-27T09:03:36.617Z,20.40
2019-03-27T09:06:07.853Z,20.40
2019-03-27T09:08:39.172Z,22.40
2019-03-27T09:11:10.436Z,23.10
2019-03-27T09:13:41.739Z,24.00
2019-03-27T09:16:13.005Z,23.20
2019-03-27T09:18:45.481Z,21.80
2019-03-27T09:21:16.713Z,20.10
2019-03-27T09:23:47.979Z,19.50
2019-03-27T09:26:19.256Z,19.60
2019-03-27T09:28:50.616Z,19.20
2019-03-27T09:31:21.861Z,18.50
2019-03-27T09:33:53.186Z,17.70
2019-03-27T09:36:24.460Z,17.00
2019-03-27T09:38:55.755Z,16.50
2019-03-27T09:41:26.999Z,16.50
2019-03-27T09:43:58.254Z,16.70
2019-03-27T09:46:29.466Z,16.70
2019-03-27T09:49:00.737Z,16.50
2019-03-27T09:51:32.068Z,16.10
2019-03-27T09:54:03.460Z,15.90
2019-03-27T09:56:34.826Z,15.80
2019-03-27T09:59:06.269Z,15.50
2019-03-27T10:01:37.461Z,15.40
2019-03-27T10:04:08.789Z,15.40
2019-03-27T10:06:40.056Z,15.10
2019-03-27T10:09:11.364Z,14.90
2019-03-27T10:11:42.631Z,14.70
2019-03-27T10:14:13.902Z,14.70
2019-03-27T10:16:45.172Z,14.50
2019-03-27T10:19:16.449Z,14.40
2019-03-27T10:21:47.684Z,14.00
2019-03-27T10:24:19.034Z,13.60
2019-03-27T10:26:50.304Z,13.30
2019-03-27T10:29:21.650Z,13.10
2019-03-27T10:31:52.960Z,13.20
2019-03-27T10:34:24.197Z,13.30
2019-03-27T10:36:55.430Z,13.30
2019-03-27T10:39:26.687Z,13.50
2019-03-27T10:41:57.980Z,13.70
2019-03-27T10:44:29.210Z,13.90
2019-03-27T10:47:00.527Z,14.00
2019-03-27T10:49:34.381Z,14.70
2019-03-27T10:52:05.271Z,15.50
2019-03-27T10:54:37.421Z,15.90
2019-03-27T10:57:08.793Z,15.80
2019-03-27T10:59:40.070Z,15.90
2019-03-27T11:02:11.340Z,15.90
2019-03-27T11:04:42.595Z,15.90
2019-03-27T11:07:13.923Z,15.90
2019-03-27T11:09:45.204Z,15.80
2019-03-27T11:12:16.489Z,15.90
2019-03-27T11:14:47.740Z,16.10
2019-03-27T11:17:19.043Z,15.60
2019-03-27T11:19:50.283Z,15.20
2019-03-27T11:22:21.626Z,14.70
2019-03-27T11:24:52.844Z,14.40
2019-03-27T11:27:24.202Z,14.10
2019-03-27T11:29:55.447Z,13.70
2019-03-27T11:32:26.861Z,13.50
2019-03-27T11:34:58.076Z,13.40
2019-03-27T11:37:29.357Z,13.30
2019-03-27T11:40:00.581Z,13.20
2019-03-27T11:42:33.113Z,13.10
2019-03-27T11:45:04.674Z,13.20
2019-03-27T11:47:35.904Z,13.30
2019-03-27T11:50:09.431Z,13.50
2019-03-27T11:52:40.687Z,13.90
2019-03-27T11:55:12.080Z,14.40
2019-03-27T11:57:43.297Z,15.00
2019-03-27T12:00:15.252Z,15.60
2019-03-27T12:02:46.561Z,16.00
2019-03-27T12:05:18.011Z,16.30
2019-03-27T12:07:49.281Z,16.50
2019-03-27T12:10:20.531Z,16.60
2019-03-27T12:12:51.788Z,16.40
2019-03-27T12:15:42.671Z,16.50
2019-03-27T12:18:16.088Z,16.10
2019-03-27T12:20:58.069Z,15.60
2019-03-27T12:23:20.962Z,15.20
2019-03-27T12:25:55.085Z,15.10
2019-03-27T12:28:25.420Z,14.90
2019-03-27T12:30:56.739Z,14.80
2019-03-27T12:33:28.044Z,14.60
2019-03-27T12:35:59.309Z,14.40
2019-03-27T12:38:30.607Z,14.40
2019-03-27T12:41:01.832Z,14.50
2019-03-27T12:43:33.101Z,14.60
2019-03-27T12:46:04.528Z,14.80
2019-03-27T12:48:35.908Z,15.00
2019-03-27T12:51:13.174Z,15.20
2019-03-27T12:53:40.124Z,15.40
2019-03-27T12:56:11.388Z,15.40
2019-03-27T12:58:42.802Z,15.50
2019-03-27T13:01:14.071Z,15.20
2019-03-27T13:03:45.476Z,15.10
2019-03-27T13:06:16.787Z,15.00
2019-03-27T13:08:49.632Z,14.80
2019-03-27T13:11:20.980Z,14.40
2019-03-27T13:13:52.331Z,14.40
2019-03-27T13:16:23.701Z,14.40
2019-03-27T13:18:54.969Z,14.30
2019-03-27T13:21:27.019Z,14.30
2019-03-27T13:23:59.668Z,14.40
2019-03-27T13:26:30.913Z,14.60
2019-03-27T13:29:02.398Z,14.50
2019-03-27T13:31:33.705Z,14.40
2019-03-27T13:34:05.007Z,14.40
2019-03-27T13:36:37.731Z,14.40
2019-03-27T13:39:09.822Z,14.20
2019-03-27T13:41:41.137Z,14.10
2019-03-27T13:44:12.564Z,14.20
2019-03-27T13:46:43.899Z,14.00
2019-03-27T13:49:15.264Z,13.90
2019-03-27T13:51:46.551Z,13.90
2019-03-27T13:54:17.878Z,13.80
2019-03-27T13:56:49.185Z,13.50
2019-03-27T13:59:20.572Z,13.40
2019-03-27T14:01:51.884Z,13.50
2019-03-27T14:04:23.138Z,13.60
2019-03-27T14:06:54.864Z,13.90
2019-03-27T14:09:26.137Z,13.80
2019-03-27T14:11:57.451Z,14.10
2019-03-27T14:14:28.703Z,14.30
2019-03-27T14:17:00.107Z,14.30
2019-03-27T14:19:31.364Z,14.40
2019-03-27T14:22:02.686Z,14.60
2019-03-27T14:24:34.054Z,14.60
2019-03-27T14:27:05.350Z,14.80
2019-03-27T14:29:37.154Z,14.90
2019-03-27T14:32:08.562Z,15.10
2019-03-27T14:34:40.181Z,15.20
2019-03-27T14:37:11.469Z,15.40
2019-03-27T14:39:42.803Z,15.60
2019-03-27T14:42:14.088Z,15.90
2019-03-27T14:44:45.336Z,15.90
2019-03-27T14:47:16.690Z,15.80
2019-03-27T14:49:47.963Z,16.00
2019-03-27T14:52:19.310Z,16.20
2019-03-27T14:54:50.621Z,16.30
2019-03-27T14:57:21.910Z,16.30
2019-03-27T14:59:53.301Z,16.30
2019-03-27T15:02:24.659Z,16.40
2019-03-27T15:04:57.026Z,16.50
2019-03-27T15:07:28.399Z,16.50
2019-03-27T15:09:59.677Z,16.50
2019-03-27T15:12:30.987Z,16.50
2019-03-27T15:15:02.264Z,16.60
2019-03-27T15:17:33.593Z,16.60
2019-03-27T15:20:06.134Z,16.60
2019-03-27T15:22:37.533Z,16.70
2019-03-27T15:25:09.143Z,16.50
2019-03-27T15:27:40.468Z,16.50
2019-03-27T15:30:14.896Z,16.10
2019-03-27T15:32:46.451Z,16.10
2019-03-27T15:35:17.806Z,16.00
2019-03-27T15:37:49.078Z,15.90
2019-03-27T15:40:40.599Z,15.90
2019-03-27T15:43:12.049Z,15.80
2019-03-27T15:45:43.600Z,15.70
2019-03-27T15:48:14.979Z,15.50
2019-03-27T15:50:55.516Z,15.50
2019-03-27T15:53:19.345Z,15.50
2019-03-27T15:55:50.833Z,15.40
2019-03-27T15:58:22.261Z,15.40
2019-03-27T16:00:53.858Z,15.30
2019-03-27T16:03:25.151Z,15.30
2019-03-27T16:05:56.546Z,15.20
2019-03-27T16:08:28.210Z,15.10
2019-03-27T16:10:59.488Z,14.90
2019-03-27T16:13:30.741Z,14.80
2019-03-27T16:16:02.156Z,14.70
2019-03-27T16:18:33.691Z,14.60
2019-03-27T16:21:04.919Z,14.60
2019-03-27T16:23:36.348Z,14.40
2019-03-27T16:26:07.671Z,14.20
2019-03-27T16:28:39.016Z,13.70
2019-03-27T16:31:10.291Z,13.80
2019-03-27T16:33:41.618Z,13.80
2019-03-27T16:36:12.874Z,13.70
2019-03-27T16:38:44.215Z,13.70
2019-03-27T16:41:15.518Z,13.60
2019-03-27T16:43:46.877Z,13.50
2019-03-27T16:46:18.138Z,13.30
2019-03-27T16:48:49.456Z,13.20
2019-03-27T16:51:20.887Z,13.20
2019-03-27T16:53:52.202Z,13.30
2019-03-27T16:56:23.523Z,13.20
2019-03-27T16:58:54.827Z,13.10
2019-03-27T17:01:26.186Z,13.00
2019-03-27T17:03:57.472Z,12.90
2019-03-27T17:06:28.727Z,12.70
2019-03-27T17:09:00.031Z,12.60
2019-03-27T17:11:31.329Z,12.50
2019-03-27T17:14:02.620Z,12.50
2019-03-27T17:16:33.872Z,12.40
2019-03-27T17:19:05.223Z,12.20
2019-03-27T17:21:36.456Z,12.20
2019-03-27T17:24:07.726Z,12.10
2019-03-27T17:26:39.017Z,12.00
2019-03-27T17:29:10.565Z,11.90
2019-03-27T17:31:41.896Z,11.80
2019-03-27T17:34:13.236Z,11.60
2019-03-27T17:36:44.523Z,11.50
2019-03-27T17:39:15.814Z,11.40
2019-03-27T17:41:47.133Z,11.30
2019-03-27T17:44:18.568Z,11.20
2019-03-27T17:46:50.358Z,11.00
2019-03-27T17:49:21.696Z,10.90
2019-03-27T17:51:53.176Z,10.70
2019-03-27T17:54:24.470Z,10.60
2019-03-27T17:56:56.001Z,10.50
2019-03-27T17:59:27.387Z,10.40
2019-03-27T18:01:58.592Z,10.20
2019-03-27T18:04:30.019Z,10.20
2019-03-27T18:07:01.288Z,10.00
2019-03-27T18:09:32.642Z,10.00
2019-03-27T18:12:04.058Z,9.90
2019-03-27T18:14:35.454Z,9.80
2019-03-27T18:17:06.700Z,9.70
2019-03-27T18:19:38.025Z,9.60
2019-03-27T18:22:09.297Z,9.60
2019-03-27T18:24:40.689Z,9.50
2019-03-27T18:27:12.039Z,9.40
2019-03-27T18:29:43.318Z,9.30
2019-03-27T18:32:14.795Z,9.30
2019-03-27T18:34:46.079Z,9.10
2019-03-27T18:37:17.481Z,9.00
2019-03-27T18:39:48.797Z,8.90
2019-03-27T18:42:20.117Z,8.90
2019-03-27T18:44:51.349Z,8.90
2019-03-27T18:47:22.688Z,8.80
2019-03-27T18:49:54.342Z,8.80
2019-03-27T18:52:25.627Z,8.70
2019-03-27T18:54:58.266Z,8.70
2019-03-27T18:57:29.523Z,8.60
2019-03-27T19:00:00.993Z,8.50
2019-03-27T19:02:32.334Z,8.50
2019-03-27T19:05:03.900Z,8.40
2019-03-27T19:07:35.152Z,8.40
2019-03-27T19:10:06.736Z,8.30
2019-03-27T19:12:38.163Z,8.30
2019-03-27T19:15:09.919Z,8.30
2019-03-27T19:17:41.266Z,8.30
2019-03-27T19:20:12.997Z,8.20
2019-03-27T19:22:44.457Z,8.20
2019-03-27T19:25:15.823Z,8.10
2019-03-27T19:27:47.477Z,8.10
2019-03-27T19:30:19.579Z,8.00
2019-03-27T19:32:50.960Z,8.00
2019-03-27T19:35:22.262Z,7.90
2019-03-27T19:37:54.225Z,7.90
2019-03-27T19:40:25.636Z,7.90
2019-03-27T19:42:57.019Z,7.80
2019-03-27T19:45:28.382Z,7.80
2019-03-27T19:47:59.669Z,7.80
2019-03-27T19:50:30.959Z,7.80
2019-03-27T19:53:02.327Z,7.80
2019-03-27T19:55:33.688Z,7.90
2019-03-27T19:58:05.003Z,7.90
2019-03-27T20:00:36.608Z,7.80
2019-03-27T20:03:08.007Z,7.80
2019-03-27T20:05:39.330Z,7.80
2019-03-27T20:08:10.594Z,7.70
2019-03-27T20:10:41.853Z,7.70
2019-03-27T20:13:13.112Z,7.60
2019-03-27T20:15:44.500Z,7.50
2019-03-27T20:18:15.766Z,7.50
2019-03-27T20:20:47.102Z,7.40
2019-03-27T20:23:18.400Z,7.40
2019-03-27T20:25:49.811Z,7.40
2019-03-27T20:28:21.122Z,7.30
2019-03-27T20:30:52.563Z,7.30
2019-03-27T20:33:24.379Z,7.30
2019-03-27T20:35:55.771Z,7.20
2019-03-27T20:38:27.680Z,7.20
2019-03-27T20:40:59.039Z,7.20
2019-03-27T20:43:30.639Z,7.20
2019-03-27T20:46:02.046Z,7.20
2019-03-27T20:48:33.624Z,7.20
2019-03-27T20:51:06.225Z,7.20
2019-03-27T20:53:37.481Z,7.10
2019-03-27T20:56:09.050Z,7.10
2019-03-27T20:58:40.374Z,7.10
2019-03-27T21:01:11.608Z,7.00
2019-03-27T21:03:42.969Z,7.00
2019-03-27T21:06:14.218Z,7.00
2019-03-27T21:08:45.615Z,7.00
2019-03-27T21:11:16.945Z,7.00
2019-03-27T21:13:48.255Z,7.00
2019-03-27T21:16:19.548Z,7.00
2019-03-27T21:18:50.794Z,7.00
2019-03-27T21:21:22.177Z,6.90
2019-03-27T21:23:53.490Z,6.90
2019-03-27T21:26:24.880Z,6.90
2019-03-27T21:28:56.143Z,6.80
2019-03-27T21:31:27.408Z,6.80
2019-03-27T21:33:58.679Z,6.70
2019-03-27T21:36:29.955Z,6.70
2019-03-27T21:39:01.209Z,6.70
2019-03-27T21:41:32.518Z,6.70
2019-03-27T21:44:04.491Z,6.70
2019-03-27T21:46:35.745Z,6.80
2019-03-27T21:49:07.100Z,6.80
2019-03-27T21:51:38.535Z,6.80
2019-03-27T21:54:10.508Z,6.80
2019-03-27T21:56:42.149Z,6.80
2019-03-27T21:59:13.579Z,6.80
2019-03-27T22:01:44.996Z,6.80
2019-03-27T22:04:16.551Z,6.70
2019-03-27T22:06:51.694Z,6.70
2019-03-27T22:09:30.012Z,6.70
2019-03-27T22:12:01.617Z,6.60
2019-03-27T22:14:32.864Z,6.60
2019-03-27T22:17:04.168Z,6.60
2019-03-27T22:19:35.513Z,6.60
2019-03-27T22:22:06.911Z,6.60
2019-03-27T22:24:38.238Z,6.60
2019-03-27T22:27:09.594Z,6.60
2019-03-27T22:29:40.848Z,6.50
2019-03-27T22:32:13.334Z,6.50
2019-03-27T22:34:44.629Z,6.50
2019-03-27T22:37:16.003Z,6.50
2019-03-27T22:39:47.257Z,6.50
2019-03-27T22:42:18.631Z,6.50
2019-03-27T22:44:49.849Z,6.50
2019-03-27T22:47:21.122Z,6.50
2019-03-27T22:49:52.429Z,6.50
2019-03-27T22:52:23.783Z,6.50
2019-03-27T22:54:55.033Z,6.50
2019-03-27T22:57:26.273Z,6.60
2019-03-27T22:59:57.546Z,6.50
2019-03-27T23:02:28.780Z,6.50
2019-03-27T23:05:00.047Z,6.50
2019-03-27T23:07:31.314Z,6.40
2019-03-27T23:10:02.529Z,6.40
2019-03-27T23:12:33.806Z,6.50
2019-03-27T23:15:05.444Z,6.50
2019-03-27T23:17:36.676Z,6.50
2019-03-27T23:20:08.679Z,6.40
2019-03-27T23:22:39.980Z,6.30
2019-03-27T23:25:12.005Z,6.30
2019-03-27T23:27:43.427Z,6.30
2019-03-27T23:30:15.011Z,6.40
2019-03-27T23:32:46.276Z,6.40
2019-03-27T23:35:18.258Z,6.40
2019-03-27T23:37:49.659Z,6.30
2019-03-27T23:40:20.940Z,6.30
2019-03-27T23:42:52.191Z,6.30
2019-03-27T23:45:23.441Z,6.30
2019-03-27T23:47:54.782Z,6.20
2019-03-27T23:50:26.149Z,6.20
2019-03-27T23:52:57.473Z,6.20
2019-03-27T23:55:28.735Z,6.20
2019-03-27T23:57:59.982Z,6.20
